createdAt,value
2023-05-03T00:00:40.451Z,96.73
2023-05-03T00:01:40.471Z,96.57
2023-05-03T00:02:40.664Z,96.53
2023-05-03T00:03:40.424Z,96.35
2023-05-03T00:04:40.471Z,96.26
2023-05-03T00:05:40.520Z,96.21
2023-05-03T00:06:40.422Z,96.13
2023-05-03T00:07:40.391Z,96.14
2023-05-03T00:08:40.332Z,96.09
2023-05-03T00:09:40.331Z,96.15
2023-05-03T00:10:40.321Z,96.14
2023-05-03T00:11:40.307Z,95.91
2023-05-03T00:12:40.283Z,95.74
2023-05-03T00:13:39.157Z,95.54
2023-05-03T00:14:40.295Z,95.39
2023-05-03T00:15:39.175Z,95.25
2023-05-03T00:16:40.272Z,95.04
2023-05-03T00:17:40.281Z,94.90
2023-05-03T00:18:40.198Z,94.75
2023-05-03T00:19:40.189Z,94.62
2023-05-03T00:20:40.172Z,94.43
2023-05-03T00:21:40.155Z,94.17
2023-05-03T00:22:40.227Z,93.94
2023-05-03T00:23:40.123Z,93.86
2023-05-03T00:24:40.131Z,93.80
2023-05-03T00:25:40.102Z,93.61
2023-05-03T00:26:40.082Z,93.46
2023-05-03T00:27:40.095Z,93.27
2023-05-03T00:28:40.064Z,93.16
2023-05-03T00:29:40.067Z,92.82
2023-05-03T00:30:40.070Z,92.61
2023-05-03T00:31:40.165Z,92.42
2023-05-03T00:32:40.025Z,92.39
2023-05-03T00:33:38.536Z,92.40
2023-05-03T00:34:39.990Z,92.23
2023-05-03T00:35:39.959Z,92.10
2023-05-03T00:36:39.959Z,92.08
2023-05-03T00:37:39.927Z,91.99
2023-05-03T00:38:39.929Z,92.24
2023-05-03T00:39:39.924Z,92.26
2023-05-03T00:40:39.910Z,92.23
2023-05-03T00:41:39.892Z,92.18
2023-05-03T00:42:39.869Z,92.00
2023-05-03T00:43:39.879Z,91.86
2023-05-03T00:44:39.845Z,91.79
2023-05-03T00:45:39.826Z,91.88
2023-05-03T00:46:39.833Z,91.70
2023-05-03T00:47:39.915Z,91.72
2023-05-03T00:48:39.811Z,91.65
2023-05-03T00:49:39.813Z,91.78
2023-05-03T00:50:39.759Z,91.75
2023-05-03T00:51:39.764Z,91.83
2023-05-03T00:52:39.742Z,91.92
2023-05-03T00:53:39.737Z,91.97
2023-05-03T00:54:39.718Z,92.17
2023-05-03T00:55:39.690Z,92.31
2023-05-03T00:56:48.305Z,92.49
2023-05-03T00:57:40.672Z,92.56
2023-05-03T00:58:39.653Z,92.63
2023-05-03T00:59:39.650Z,92.83
2023-05-03T01:00:39.632Z,92.99
2023-05-03T01:01:39.638Z,93.09
2023-05-03T01:02:39.712Z,93.18
2023-05-03T01:03:39.675Z,93.46
2023-05-03T01:04:41.080Z,93.60
2023-05-03T01:05:39.554Z,93.85
2023-05-03T01:06:39.593Z,94.01
2023-05-03T01:07:39.528Z,93.84
2023-05-03T01:08:39.514Z,93.82
2023-05-03T01:09:38.512Z,93.84
2023-05-03T01:10:39.565Z,93.91
2023-05-03T01:11:38.584Z,93.95
2023-05-03T01:12:39.520Z,93.91
2023-05-03T01:13:38.340Z,93.98
2023-05-03T01:14:39.448Z,94.00
2023-05-03T01:15:39.424Z,94.00
2023-05-03T01:16:39.454Z,94.03
2023-05-03T01:17:38.134Z,93.94
2023-05-03T01:18:39.372Z,93.95
2023-05-03T01:19:39.387Z,94.06
2023-05-03T01:20:38.400Z,94.03
2023-05-03T01:21:38.194Z,93.88
2023-05-03T01:22:39.324Z,93.89
2023-05-03T01:23:38.523Z,93.89
2023-05-03T01:24:39.295Z,94.14
2023-05-03T01:25:38.149Z,94.19
2023-05-03T01:26:39.261Z,94.33
2023-05-03T01:27:39.245Z,94.52
2023-05-03T01:28:39.243Z,94.68
2023-05-03T01:29:38.507Z,94.96
2023-05-03T01:30:39.202Z,95.04
2023-05-03T01:31:38.262Z,95.11
2023-05-03T01:32:39.191Z,95.22
2023-05-03T01:33:37.833Z,95.39
2023-05-03T01:34:39.161Z,95.56
2023-05-03T01:35:37.838Z,95.65
2023-05-03T01:36:39.135Z,95.69
2023-05-03T01:37:39.122Z,95.73
2023-05-03T01:38:39.092Z,95.71
2023-05-03T01:39:39.109Z,95.72
2023-05-03T01:40:39.083Z,95.76
2023-05-03T01:41:37.609Z,95.81
2023-05-03T01:42:39.050Z,95.77
2023-05-03T01:43:39.036Z,95.66
2023-05-03T01:44:37.632Z,95.59
2023-05-03T01:45:39.026Z,95.40
2023-05-03T01:46:38.987Z,94.97
2023-05-03T01:47:39.033Z,94.42
2023-05-03T01:48:38.979Z,94.04
2023-05-03T01:49:38.969Z,93.55
2023-05-03T01:50:38.608Z,93.34
2023-05-03T01:51:38.928Z,93.22
2023-05-03T01:52:38.922Z,93.13
2023-05-03T01:53:38.900Z,93.09
2023-05-03T01:54:38.889Z,93.10
2023-05-03T01:55:38.876Z,93.21
2023-05-03T01:56:38.868Z,93.37
2023-05-03T01:57:38.838Z,93.55
2023-05-03T01:58:38.837Z,93.61
2023-05-03T01:59:38.826Z,93.67
2023-05-03T02:00:38.804Z,93.81
2023-05-03T02:01:38.946Z,93.89
2023-05-03T02:02:38.581Z,93.96
2023-05-03T02:03:38.767Z,94.02
2023-05-03T02:04:38.831Z,93.89
2023-05-03T02:05:38.731Z,93.77
2023-05-03T02:06:38.767Z,93.75
2023-05-03T02:07:38.709Z,93.79
2023-05-03T02:08:38.708Z,93.79
2023-05-03T02:09:38.701Z,93.76
2023-05-03T02:10:38.663Z,93.81
2023-05-03T02:11:38.651Z,93.84
2023-05-03T02:12:38.642Z,93.83
2023-05-03T02:13:37.228Z,93.82
2023-05-03T02:14:38.636Z,93.66
2023-05-03T02:15:38.598Z,93.05
2023-05-03T02:16:38.698Z,92.70
2023-05-03T02:17:38.667Z,92.28
2023-05-03T02:18:38.576Z,91.75
2023-05-03T02:19:38.563Z,91.44
2023-05-03T02:20:38.565Z,90.88
2023-05-03T02:21:37.233Z,90.54
2023-05-03T02:22:38.493Z,90.39
2023-05-03T02:23:37.076Z,90.01
2023-05-03T02:24:38.499Z,89.59
2023-05-03T02:25:38.475Z,89.19
2023-05-03T02:26:38.454Z,88.76
2023-05-03T02:27:37.226Z,88.62
2023-05-03T02:28:38.420Z,88.62
2023-05-03T02:29:38.415Z,88.63
2023-05-03T02:30:38.440Z,88.53
2023-05-03T02:31:37.248Z,88.34
2023-05-03T02:32:38.410Z,88.21
2023-05-03T02:33:37.254Z,88.08
2023-05-03T02:34:38.361Z,87.89
2023-05-03T02:35:38.326Z,87.69
2023-05-03T02:36:38.338Z,87.50
2023-05-03T02:37:38.315Z,87.47
2023-05-03T02:38:38.299Z,87.34
2023-05-03T02:39:38.293Z,87.16
2023-05-03T02:40:38.255Z,86.92
2023-05-03T02:41:38.245Z,86.85
2023-05-03T02:42:38.239Z,86.99
2023-05-03T02:43:37.255Z,86.96
2023-05-03T02:44:37.267Z,86.88
2023-05-03T02:45:38.189Z,86.89
2023-05-03T02:46:38.214Z,86.90
2023-05-03T02:47:38.189Z,86.87
2023-05-03T02:48:38.208Z,86.77
2023-05-03T02:49:38.151Z,86.80
2023-05-03T02:50:38.124Z,86.89
2023-05-03T02:51:38.121Z,86.96
2023-05-03T02:52:37.184Z,86.93
2023-05-03T02:53:36.628Z,86.84
2023-05-03T02:54:38.089Z,86.81
2023-05-03T02:55:38.060Z,86.89
2023-05-03T02:56:38.037Z,86.98
2023-05-03T02:57:38.715Z,86.80
2023-05-03T02:58:38.022Z,86.83
2023-05-03T02:59:38.020Z,86.69
2023-05-03T03:00:37.981Z,86.61
2023-05-03T03:01:38.007Z,86.47
2023-05-03T03:02:38.021Z,86.59
2023-05-03T03:03:38.051Z,86.64
2023-05-03T03:04:37.946Z,86.77
2023-05-03T03:05:37.920Z,86.77
2023-05-03T03:06:37.988Z,86.84
2023-05-03T03:07:37.893Z,86.86
2023-05-03T03:08:37.880Z,86.93
2023-05-03T03:09:37.885Z,86.96
2023-05-03T03:10:37.860Z,86.85
2023-05-03T03:11:37.853Z,86.90
2023-05-03T03:12:37.846Z,86.95
2023-05-03T03:13:37.822Z,87.07
2023-05-03T03:14:37.829Z,87.08
2023-05-03T03:15:37.806Z,87.10
2023-05-03T03:16:37.923Z,87.17
2023-05-03T03:17:37.809Z,87.15
2023-05-03T03:18:37.757Z,87.06
2023-05-03T03:19:37.740Z,87.05
2023-05-03T03:20:37.738Z,87.16
2023-05-03T03:21:37.708Z,87.13
2023-05-03T03:22:37.708Z,87.27
2023-05-03T03:23:37.677Z,87.30
2023-05-03T03:24:37.686Z,87.41
2023-05-03T03:25:37.655Z,87.39
2023-05-03T03:26:37.673Z,87.39
2023-05-03T03:27:37.596Z,87.46
2023-05-03T03:28:37.617Z,87.42
2023-05-03T03:29:37.106Z,87.46
2023-05-03T03:30:36.637Z,87.49
2023-05-03T03:31:37.631Z,87.52
2023-05-03T03:32:37.618Z,87.46
2023-05-03T03:33:36.637Z,87.50
2023-05-03T03:34:37.546Z,87.54
2023-05-03T03:35:36.651Z,87.57
2023-05-03T03:36:37.516Z,87.55
2023-05-03T03:37:37.506Z,87.63
2023-05-03T03:38:37.496Z,87.80
2023-05-03T03:39:37.475Z,87.70
2023-05-03T03:40:37.507Z,87.85
2023-05-03T03:41:37.442Z,87.94
2023-05-03T03:42:37.428Z,87.90
2023-05-03T03:43:37.413Z,87.94
2023-05-03T03:44:37.415Z,87.98
2023-05-03T03:45:37.563Z,88.08
2023-05-03T03:46:37.417Z,88.13
2023-05-03T03:47:37.395Z,88.25
2023-05-03T03:48:37.349Z,88.37
2023-05-03T03:49:36.153Z,88.47
2023-05-03T03:50:37.340Z,88.71
2023-05-03T03:51:36.050Z,88.85
2023-05-03T03:52:37.297Z,88.93
2023-05-03T03:53:36.186Z,88.99
2023-05-03T03:54:36.326Z,89.11
2023-05-03T03:55:37.264Z,89.18
2023-05-03T03:56:37.256Z,89.33
2023-05-03T03:57:37.239Z,89.50
2023-05-03T03:58:37.226Z,89.63
2023-05-03T03:59:37.208Z,89.71
2023-05-03T04:00:37.219Z,89.84
2023-05-03T04:01:37.190Z,89.98
2023-05-03T04:02:37.324Z,90.10
2023-05-03T04:03:37.266Z,90.24
2023-05-03T04:04:37.159Z,90.45
2023-05-03T04:05:37.120Z,90.57
2023-05-03T04:06:36.651Z,90.62
2023-05-03T04:07:37.114Z,90.66
2023-05-03T04:08:37.083Z,90.78
2023-05-03T04:09:37.089Z,90.87
2023-05-03T04:10:37.073Z,90.99
2023-05-03T04:11:37.040Z,91.08
2023-05-03T04:12:37.038Z,91.19
2023-05-03T04:13:37.018Z,91.26
2023-05-03T04:14:37.011Z,91.32
2023-05-03T04:15:36.991Z,91.26
2023-05-03T04:16:37.017Z,91.22
2023-05-03T04:17:36.987Z,91.17
2023-05-03T04:18:36.948Z,91.24
2023-05-03T04:19:36.936Z,91.21
2023-05-03T04:20:36.974Z,90.84
2023-05-03T04:21:36.911Z,90.72
2023-05-03T04:22:36.899Z,90.55
2023-05-03T04:23:36.873Z,90.32
2023-05-03T04:24:36.867Z,90.12
2023-05-03T04:25:36.872Z,90.04
2023-05-03T04:26:36.850Z,90.04
2023-05-03T04:27:36.814Z,89.98
2023-05-03T04:28:36.825Z,89.97
2023-05-03T04:29:36.793Z,89.97
2023-05-03T04:30:36.836Z,90.05
2023-05-03T04:31:36.761Z,90.14
2023-05-03T04:32:36.804Z,90.08
2023-05-03T04:33:36.740Z,89.99
2023-05-03T04:34:36.722Z,89.76
2023-05-03T04:35:36.724Z,89.76
2023-05-03T04:36:36.689Z,89.60
2023-05-03T04:37:36.881Z,89.45
2023-05-03T04:38:36.677Z,89.24
2023-05-03T04:39:36.665Z,89.25
2023-05-03T04:40:36.658Z,89.16
2023-05-03T04:41:36.647Z,89.21
2023-05-03T04:42:36.625Z,89.07
2023-05-03T04:43:36.617Z,88.93
2023-05-03T04:44:36.586Z,88.86
2023-05-03T04:45:36.576Z,88.96
2023-05-03T04:46:36.642Z,88.84
2023-05-03T04:47:36.584Z,88.88
2023-05-03T04:48:36.540Z,88.85
2023-05-03T04:49:36.514Z,88.83
2023-05-03T04:50:36.521Z,88.65
2023-05-03T04:51:36.486Z,88.33
2023-05-03T04:52:36.479Z,88.19
2023-05-03T04:53:36.461Z,88.22
2023-05-03T04:54:36.453Z,88.21
2023-05-03T04:55:36.487Z,88.22
2023-05-03T04:56:36.423Z,88.14
2023-05-03T04:57:36.409Z,88.01
2023-05-03T04:58:36.406Z,87.79
2023-05-03T04:59:34.968Z,87.58
2023-05-03T05:00:36.379Z,87.17
2023-05-03T05:01:36.417Z,86.40
2023-05-03T05:02:36.432Z,85.76
2023-05-03T05:03:36.453Z,85.24
2023-05-03T05:04:36.335Z,84.80
2023-05-03T05:05:36.375Z,84.56
2023-05-03T05:06:36.333Z,83.94
2023-05-03T05:07:36.275Z,83.37
2023-05-03T05:08:36.274Z,82.98
2023-05-03T05:09:36.258Z,82.48
2023-05-03T05:10:36.320Z,81.99
2023-05-03T05:11:36.224Z,82.29
2023-05-03T05:12:36.200Z,82.73
2023-05-03T05:13:36.200Z,83.23
2023-05-03T05:14:36.187Z,83.76
2023-05-03T05:15:36.181Z,84.04
2023-05-03T05:16:36.196Z,84.33
2023-05-03T05:17:36.282Z,84.65
2023-05-03T05:18:36.194Z,84.84
2023-05-03T05:19:36.082Z,84.90
2023-05-03T05:20:36.117Z,85.08
2023-05-03T05:21:34.994Z,85.25
2023-05-03T05:22:35.249Z,85.21
2023-05-03T05:23:36.080Z,85.35
2023-05-03T05:24:36.042Z,85.43
2023-05-03T05:25:36.053Z,85.56
2023-05-03T05:26:36.024Z,85.61
2023-05-03T05:27:36.023Z,85.67
2023-05-03T05:28:36.014Z,85.79
2023-05-03T05:29:35.990Z,85.87
2023-05-03T05:30:36.028Z,85.77
2023-05-03T05:31:35.989Z,85.63
2023-05-03T05:32:36.120Z,85.57
2023-05-03T05:33:35.905Z,85.71
2023-05-03T05:34:43.545Z,85.61
2023-05-03T05:35:36.908Z,85.60
2023-05-03T05:36:35.872Z,85.46
2023-05-03T05:37:35.857Z,85.41
2023-05-03T05:38:35.890Z,85.40
2023-05-03T05:39:35.861Z,85.44
2023-05-03T05:40:35.820Z,85.36
2023-05-03T05:41:35.816Z,85.22
2023-05-03T05:42:35.796Z,85.25
2023-05-03T05:43:35.798Z,85.16
2023-05-03T05:44:35.775Z,85.00
2023-05-03T05:45:34.743Z,84.86
2023-05-03T05:46:35.782Z,84.78
2023-05-03T05:47:34.823Z,84.72
2023-05-03T05:48:35.732Z,84.53
2023-05-03T05:49:35.712Z,84.48
2023-05-03T05:50:34.776Z,84.55
2023-05-03T05:51:35.765Z,84.40
2023-05-03T05:52:35.746Z,84.10
2023-05-03T05:53:35.859Z,84.12
2023-05-03T05:54:35.751Z,84.16
2023-05-03T05:55:35.618Z,83.99
2023-05-03T05:56:34.210Z,83.96
2023-05-03T05:57:35.619Z,84.01
2023-05-03T05:58:35.595Z,83.97
2023-05-03T05:59:35.572Z,84.02
2023-05-03T06:00:35.721Z,83.97
2023-05-03T06:01:34.494Z,83.66
2023-05-03T06:02:35.856Z,83.61
2023-05-03T06:03:35.542Z,83.66
2023-05-03T06:04:35.518Z,83.54
2023-05-03T06:05:35.060Z,83.32
2023-05-03T06:06:35.742Z,83.39
2023-05-03T06:07:35.470Z,83.50
2023-05-03T06:08:35.522Z,83.67
2023-05-03T06:09:35.471Z,83.54
2023-05-03T06:10:35.462Z,83.63
2023-05-03T06:11:35.434Z,83.47
2023-05-03T06:12:35.476Z,83.34
2023-05-03T06:13:35.548Z,83.15
2023-05-03T06:14:34.048Z,83.22
2023-05-03T06:15:35.390Z,82.81
2023-05-03T06:16:35.433Z,82.24
2023-05-03T06:17:35.553Z,82.01
2023-05-03T06:18:35.491Z,81.94
2023-05-03T06:19:35.486Z,81.72
2023-05-03T06:20:33.909Z,81.55
2023-05-03T06:21:34.905Z,81.56
2023-05-03T06:22:33.998Z,81.29
2023-05-03T06:23:35.322Z,81.59
2023-05-03T06:24:35.248Z,81.57
2023-05-03T06:25:35.242Z,81.14
2023-05-03T06:26:35.347Z,80.98
2023-05-03T06:27:35.202Z,80.58
2023-05-03T06:28:35.247Z,80.51
2023-05-03T06:29:35.178Z,79.97
2023-05-03T06:30:35.167Z,80.12
2023-05-03T06:31:35.253Z,80.38
2023-05-03T06:32:35.149Z,80.02
2023-05-03T06:33:35.103Z,79.71
2023-05-03T06:34:35.100Z,79.06
2023-05-03T06:35:35.096Z,77.71
2023-05-03T06:36:35.080Z,76.37
2023-05-03T06:37:35.068Z,74.41
2023-05-03T06:38:35.046Z,72.59
2023-05-03T06:39:35.042Z,70.86
2023-05-03T06:40:36.028Z,69.79
2023-05-03T06:41:35.009Z,68.85
2023-05-03T06:42:34.984Z,68.17
2023-05-03T06:43:34.995Z,67.37
2023-05-03T06:44:34.955Z,66.85
2023-05-03T06:45:34.957Z,66.30
2023-05-03T06:46:34.970Z,65.96
2023-05-03T06:47:34.955Z,65.51
2023-05-03T06:48:34.938Z,65.64
2023-05-03T06:49:34.896Z,65.18
2023-05-03T06:50:34.879Z,65.45
2023-05-03T06:51:34.874Z,65.09
2023-05-03T06:52:34.843Z,64.59
2023-05-03T06:53:34.827Z,64.16
2023-05-03T06:54:34.812Z,63.85
2023-05-03T06:55:34.824Z,63.52
2023-05-03T06:56:34.807Z,64.90
2023-05-03T06:57:34.798Z,66.12
2023-05-03T06:58:34.781Z,66.77
2023-05-03T06:59:34.764Z,66.79
2023-05-03T07:00:34.757Z,66.38
2023-05-03T07:01:34.792Z,65.77
2023-05-03T07:02:34.864Z,65.12
2023-05-03T07:03:34.783Z,64.34
2023-05-03T07:04:34.676Z,63.82
2023-05-03T07:05:34.664Z,63.96
2023-05-03T07:06:44.297Z,63.83
2023-05-03T07:07:35.646Z,63.58
2023-05-03T07:08:34.626Z,63.62
2023-05-03T07:09:42.817Z,63.21
2023-05-03T07:10:35.606Z,63.26
2023-05-03T07:11:34.622Z,62.97
2023-05-03T07:12:34.579Z,62.54
2023-05-03T07:13:34.567Z,61.77
2023-05-03T07:14:34.557Z,61.19
2023-05-03T07:15:34.553Z,60.72
2023-05-03T07:16:34.591Z,60.15
2023-05-03T07:17:34.535Z,60.23
2023-05-03T07:18:34.488Z,59.79
2023-05-03T07:19:34.498Z,59.21
2023-05-03T07:20:34.485Z,59.17
2023-05-03T07:21:34.457Z,58.86
2023-05-03T07:22:34.438Z,58.71
2023-05-03T07:23:33.476Z,58.87
2023-05-03T07:24:34.406Z,58.90
2023-05-03T07:25:34.413Z,59.21
2023-05-03T07:26:34.390Z,58.44
2023-05-03T07:27:34.376Z,57.91
2023-05-03T07:28:34.365Z,58.52
2023-05-03T07:29:34.341Z,58.02
2023-05-03T07:30:34.340Z,57.60
2023-05-03T07:31:34.321Z,57.99
2023-05-03T07:32:34.373Z,57.40
2023-05-03T07:33:34.356Z,56.89
2023-05-03T07:34:34.297Z,56.44
2023-05-03T07:35:34.269Z,56.69
2023-05-03T07:36:34.252Z,56.77
2023-05-03T07:37:34.248Z,57.12
2023-05-03T07:38:34.244Z,57.33
2023-05-03T07:39:34.208Z,56.58
2023-05-03T07:40:34.204Z,56.00
2023-05-03T07:41:34.187Z,55.79
2023-05-03T07:42:34.184Z,55.19
2023-05-03T07:43:34.154Z,54.92
2023-05-03T07:44:34.157Z,54.53
2023-05-03T07:45:34.151Z,54.53
2023-05-03T07:46:34.112Z,54.48
2023-05-03T07:47:34.132Z,54.84
2023-05-03T07:48:34.082Z,54.12
2023-05-03T07:49:34.089Z,54.50
2023-05-03T07:50:34.072Z,54.35
2023-05-03T07:51:34.084Z,54.78
2023-05-03T07:52:34.033Z,54.43
2023-05-03T07:53:34.021Z,55.33
2023-05-03T07:54:34.005Z,54.98
2023-05-03T07:55:33.981Z,54.18
2023-05-03T07:56:33.993Z,54.01
2023-05-03T07:57:33.972Z,53.76
2023-05-03T07:58:40.002Z,53.70
2023-05-03T07:59:34.939Z,53.74
2023-05-03T08:00:33.930Z,53.65
2023-05-03T08:01:33.928Z,54.07
2023-05-03T08:02:34.014Z,54.02
2023-05-03T08:03:34.100Z,54.09
2023-05-03T08:04:33.979Z,54.45
2023-05-03T08:05:33.889Z,54.93
2023-05-03T08:06:33.384Z,54.94
2023-05-03T08:07:32.866Z,53.71
2023-05-03T08:08:33.014Z,53.41
2023-05-03T08:09:32.860Z,53.43
2023-05-03T08:10:32.882Z,53.99
2023-05-03T08:11:33.817Z,53.62
2023-05-03T08:12:32.664Z,53.76
2023-05-03T08:13:33.758Z,53.14
2023-05-03T08:14:33.776Z,53.42
2023-05-03T08:15:33.765Z,54.33
2023-05-03T08:16:33.710Z,54.30
2023-05-03T08:17:33.717Z,54.48
2023-05-03T08:18:33.675Z,54.15
2023-05-03T08:19:33.701Z,54.39
2023-05-03T08:20:32.336Z,54.46
2023-05-03T08:21:33.742Z,53.91
2023-05-03T08:22:33.637Z,53.48
2023-05-03T08:23:33.620Z,53.72
2023-05-03T08:24:33.600Z,53.16
2023-05-03T08:25:33.597Z,53.86
2023-05-03T08:26:33.579Z,53.85
2023-05-03T08:27:33.583Z,53.92
2023-05-03T08:28:32.140Z,53.46
2023-05-03T08:29:32.593Z,53.25
2023-05-03T08:30:33.525Z,52.31
2023-05-03T08:31:33.553Z,53.11
2023-05-03T08:32:33.560Z,51.62
2023-05-03T08:33:33.516Z,51.76
2023-05-03T08:34:33.498Z,52.17
2023-05-03T08:35:33.464Z,52.00
2023-05-03T08:36:33.442Z,50.92
2023-05-03T08:37:33.457Z,50.55
2023-05-03T08:38:33.424Z,51.43
2023-05-03T08:39:33.411Z,50.81
2023-05-03T08:40:33.401Z,50.91
2023-05-03T08:41:33.402Z,51.32
2023-05-03T08:42:33.379Z,50.94
2023-05-03T08:43:33.355Z,51.51
2023-05-03T08:44:33.335Z,51.58
2023-05-03T08:45:33.332Z,51.00
2023-05-03T08:46:33.323Z,50.42
2023-05-03T08:47:33.363Z,51.54
2023-05-03T08:48:33.280Z,51.64
2023-05-03T08:49:33.282Z,51.97
2023-05-03T08:50:33.260Z,52.05
2023-05-03T08:51:33.270Z,50.88
2023-05-03T08:52:33.234Z,50.24
2023-05-03T08:53:33.241Z,49.34
2023-05-03T08:54:33.205Z,49.28
2023-05-03T08:55:33.244Z,49.79
2023-05-03T08:56:33.184Z,49.78
2023-05-03T08:57:33.184Z,49.61
2023-05-03T08:58:33.173Z,48.77
2023-05-03T08:59:33.161Z,49.33
2023-05-03T09:00:33.135Z,49.38
2023-05-03T09:01:33.187Z,49.02
2023-05-03T09:02:33.258Z,49.70
2023-05-03T09:03:33.161Z,50.10
2023-05-03T09:04:33.260Z,49.76
2023-05-03T09:05:33.051Z,49.30
2023-05-03T09:06:33.133Z,49.00
2023-05-03T09:07:33.046Z,50.67
2023-05-03T09:08:33.013Z,50.62
2023-05-03T09:09:33.012Z,50.38
2023-05-03T09:10:32.992Z,50.97
2023-05-03T09:11:32.989Z,51.31
2023-05-03T09:12:33.123Z,51.25
2023-05-03T09:13:32.950Z,50.76
2023-05-03T09:14:32.965Z,50.53
2023-05-03T09:15:32.935Z,50.43
2023-05-03T09:16:32.974Z,50.08
2023-05-03T09:17:32.948Z,50.11
2023-05-03T09:18:32.906Z,49.85
2023-05-03T09:19:32.886Z,49.50
2023-05-03T09:20:32.865Z,49.36
2023-05-03T09:21:32.873Z,49.37
2023-05-03T09:22:32.845Z,48.71
2023-05-03T09:23:32.850Z,48.24
2023-05-03T09:24:32.812Z,48.93
2023-05-03T09:25:32.935Z,48.84
2023-05-03T09:26:34.582Z,48.76
2023-05-03T09:27:32.772Z,49.63
2023-05-03T09:28:32.770Z,48.73
2023-05-03T09:29:31.303Z,49.62
2023-05-03T09:30:32.755Z,48.30
2023-05-03T09:31:32.762Z,48.33
2023-05-03T09:32:32.803Z,48.19
2023-05-03T09:33:32.702Z,48.14
2023-05-03T09:34:32.681Z,48.27
2023-05-03T09:35:32.685Z,47.27
2023-05-03T09:36:32.652Z,47.47
2023-05-03T09:37:31.693Z,47.07
2023-05-03T09:38:32.649Z,47.60
2023-05-03T09:39:32.610Z,46.61
2023-05-03T09:40:32.606Z,46.33
2023-05-03T09:41:32.596Z,47.42
2023-05-03T09:42:32.600Z,47.87
2023-05-03T09:43:32.568Z,48.78
2023-05-03T09:44:32.549Z,48.81
2023-05-03T09:45:32.582Z,48.65
2023-05-03T09:46:32.552Z,47.93
2023-05-03T09:47:32.551Z,47.80
2023-05-03T09:48:32.517Z,47.38
2023-05-03T09:49:32.518Z,46.37
2023-05-03T09:50:32.469Z,46.56
2023-05-03T09:51:32.467Z,46.68
2023-05-03T09:52:32.448Z,46.21
2023-05-03T09:53:32.473Z,46.06
2023-05-03T09:54:32.417Z,47.09
2023-05-03T09:55:32.408Z,47.28
2023-05-03T09:56:32.404Z,47.99
2023-05-03T09:57:32.388Z,47.38
2023-05-03T09:58:32.375Z,47.17
2023-05-03T09:59:32.361Z,46.93
2023-05-03T10:00:32.361Z,48.13
2023-05-03T10:01:32.349Z,47.77
2023-05-03T10:02:32.375Z,48.50
2023-05-03T10:03:32.365Z,47.57
2023-05-03T10:04:32.290Z,46.78
2023-05-03T10:05:32.293Z,46.71
2023-05-03T10:06:32.330Z,47.65
2023-05-03T10:07:32.269Z,47.55
2023-05-03T10:08:32.252Z,48.03
2023-05-03T10:09:32.221Z,48.02
2023-05-03T10:10:32.224Z,47.47
2023-05-03T10:11:32.197Z,47.49
2023-05-03T10:12:32.202Z,47.62
2023-05-03T10:13:32.202Z,47.43
2023-05-03T10:14:32.226Z,47.42
2023-05-03T10:15:32.273Z,47.47
2023-05-03T10:16:32.192Z,46.81
2023-05-03T10:17:47.183Z,47.05
2023-05-03T10:18:33.162Z,47.94
2023-05-03T10:19:32.104Z,47.88
2023-05-03T10:20:32.111Z,47.87
2023-05-03T10:21:32.099Z,48.36
2023-05-03T10:22:32.074Z,48.47
2023-05-03T10:23:32.064Z,48.37
2023-05-03T10:24:31.095Z,47.52
2023-05-03T10:25:32.016Z,47.82
2023-05-03T10:26:32.024Z,47.51
2023-05-03T10:27:32.007Z,47.04
2023-05-03T10:28:31.992Z,45.46
2023-05-03T10:29:31.033Z,45.01
2023-05-03T10:30:31.030Z,44.37
2023-05-03T10:31:32.003Z,44.64
2023-05-03T10:32:34.718Z,44.46
2023-05-03T10:33:31.929Z,45.40
2023-05-03T10:34:34.997Z,45.60
2023-05-03T10:35:31.909Z,45.85
2023-05-03T10:36:45.865Z,45.62
2023-05-03T10:37:32.870Z,46.22
2023-05-03T10:38:31.864Z,45.83
2023-05-03T10:39:31.850Z,45.06
2023-05-03T10:40:30.474Z,45.22
2023-05-03T10:41:31.494Z,44.81
2023-05-03T10:42:31.821Z,45.74
2023-05-03T10:43:31.805Z,45.59
2023-05-03T10:44:31.799Z,46.58
2023-05-03T10:45:31.817Z,46.33
2023-05-03T10:46:31.772Z,45.70
2023-05-03T10:47:32.008Z,44.62
2023-05-03T10:48:31.745Z,44.74
2023-05-03T10:49:31.730Z,45.04
2023-05-03T10:50:30.743Z,45.35
2023-05-03T10:51:30.934Z,46.17
2023-05-03T10:52:31.694Z,44.72
2023-05-03T10:53:31.683Z,45.27
2023-05-03T10:54:31.662Z,44.31
2023-05-03T10:55:31.653Z,43.60
2023-05-03T10:56:31.653Z,43.18
2023-05-03T10:57:31.639Z,43.88
2023-05-03T10:58:31.642Z,43.27
2023-05-03T10:59:31.591Z,43.46
2023-05-03T11:00:31.579Z,43.43
2023-05-03T11:01:31.600Z,44.42
2023-05-03T11:02:31.596Z,43.83
2023-05-03T11:03:31.584Z,44.56
2023-05-03T11:04:31.932Z,45.32
2023-05-03T11:05:31.525Z,44.72
2023-05-03T11:06:31.631Z,44.50
2023-05-03T11:07:31.502Z,45.15
2023-05-03T11:08:31.491Z,45.60
2023-05-03T11:09:31.472Z,44.45
2023-05-03T11:10:31.449Z,44.40
2023-05-03T11:11:31.662Z,44.28
2023-05-03T11:12:30.091Z,44.00
2023-05-03T11:13:31.478Z,43.67
2023-05-03T11:14:31.408Z,44.34
2023-05-03T11:15:31.405Z,43.62
2023-05-03T11:16:31.478Z,44.11
2023-05-03T11:17:31.411Z,43.08
2023-05-03T11:18:31.367Z,43.08
2023-05-03T11:19:31.361Z,43.62
2023-05-03T11:20:31.319Z,44.05
2023-05-03T11:21:31.313Z,43.27
2023-05-03T11:22:31.298Z,42.84
2023-05-03T11:23:31.299Z,43.68
2023-05-03T11:24:31.274Z,43.49
2023-05-03T11:25:31.261Z,43.92
2023-05-03T11:26:31.270Z,44.17
2023-05-03T11:27:31.225Z,44.56
2023-05-03T11:28:31.220Z,43.36
2023-05-03T11:29:31.223Z,42.45
2023-05-03T11:30:31.195Z,41.85
2023-05-03T11:31:31.205Z,41.96
2023-05-03T11:32:31.201Z,41.82
2023-05-03T11:33:31.168Z,41.34
2023-05-03T11:34:31.160Z,41.75
2023-05-03T11:35:31.127Z,42.31
2023-05-03T11:36:31.149Z,41.83
2023-05-03T11:37:31.104Z,41.92
2023-05-03T11:38:31.095Z,42.60
2023-05-03T11:39:31.094Z,42.42
2023-05-03T11:40:31.071Z,43.03
2023-05-03T11:41:31.060Z,43.03
2023-05-03T11:42:31.052Z,43.38
2023-05-03T11:43:31.073Z,43.19
2023-05-03T11:44:31.023Z,42.77
2023-05-03T11:45:31.017Z,43.04
2023-05-03T11:46:31.055Z,42.82
2023-05-03T11:47:29.804Z,43.49
2023-05-03T11:48:31.043Z,43.51
2023-05-03T11:49:30.965Z,43.51
2023-05-03T11:50:30.943Z,43.56
2023-05-03T11:51:30.916Z,43.30
2023-05-03T11:52:29.684Z,42.58
2023-05-03T11:53:30.897Z,42.15
2023-05-03T11:54:30.973Z,42.00
2023-05-03T11:55:30.914Z,42.19
2023-05-03T11:56:30.868Z,43.14
2023-05-03T11:57:30.860Z,43.23
2023-05-03T11:58:30.833Z,42.59
2023-05-03T11:59:30.844Z,41.49
2023-05-03T12:00:29.700Z,41.92
2023-05-03T12:01:30.863Z,42.44
2023-05-03T12:02:30.901Z,42.95
2023-05-03T12:03:32.117Z,43.73
2023-05-03T12:04:29.998Z,43.46
2023-05-03T12:05:31.106Z,42.76
2023-05-03T12:06:31.732Z,43.23
2023-05-03T12:07:30.982Z,42.94
2023-05-03T12:08:32.036Z,43.65
2023-05-03T12:09:31.787Z,43.47
2023-05-03T12:10:32.461Z,42.96
2023-05-03T12:11:33.010Z,42.58
2023-05-03T12:12:32.336Z,42.41
2023-05-03T12:13:30.842Z,42.61
2023-05-03T12:14:29.847Z,42.81
2023-05-03T12:15:30.775Z,41.28
2023-05-03T12:16:30.691Z,40.66
2023-05-03T12:17:30.800Z,40.18
2023-05-03T12:18:30.847Z,41.63
2023-05-03T12:19:33.642Z,40.83
2023-05-03T12:21:05.174Z,39.84
2023-05-03T12:21:32.317Z,40.40
2023-05-03T12:22:31.038Z,40.90
2023-05-03T12:23:30.750Z,41.02
2023-05-03T12:24:33.050Z,41.20
2023-05-03T12:25:33.965Z,41.11
2023-05-03T12:26:31.415Z,41.85
2023-05-03T12:27:32.658Z,42.88
2023-05-03T12:28:30.550Z,43.12
2023-05-03T12:29:33.797Z,42.71
2023-05-03T12:30:32.789Z,42.58
2023-05-03T12:31:30.652Z,42.76
2023-05-03T12:32:30.481Z,42.69
2023-05-03T12:33:33.341Z,42.78
2023-05-03T12:34:35.065Z,42.32
2023-05-03T12:35:34.241Z,42.23
2023-05-03T12:36:31.637Z,43.21
2023-05-03T12:37:33.215Z,43.51
2023-05-03T12:38:31.144Z,42.62
2023-05-03T12:39:32.490Z,42.92
2023-05-03T12:40:34.336Z,42.16
2023-05-03T12:42:31.851Z,43.17
2023-05-03T12:43:30.312Z,43.48
2023-05-03T12:44:34.366Z,42.15
2023-05-03T12:45:33.620Z,42.24
2023-05-03T12:46:34.741Z,41.79
2023-05-03T12:47:30.319Z,41.90
2023-05-03T12:48:32.558Z,42.05
2023-05-03T12:49:30.396Z,41.77
2023-05-03T12:50:31.969Z,42.07
2023-05-03T12:51:33.146Z,41.75
2023-05-03T12:53:30.246Z,42.22
2023-05-03T12:54:33.431Z,42.83